Pagrindinis puslapis
METAR-TAF:

METAR-TAF

Oro uostai :

Simferopolis, Rusija

platuma: 45-03-08N, ilguma: 033-58-31E, Aukštis: 195 m

Dabartinis oras

Ataskaita buvo paskelbta 42 minutes, ne 10:00 UTC
Vėjas 16 kt iš Vakarų
Temperatūra 18°C
Drėgmė 49%
Slėgis 1022 hPa
Matomumas 10 km arba daugiau
Su prošvaistėmis ne aukštis 4100 ft

METAR: URFF 221000Z 26008MPS 9999 BKN041 18/07 Q1022 R19/090095 NOSIG

Laikas: 13:42 (10:42 UTC)

Prognozė

Ataskaita buvo paskelbta 2 valandos ir 52 minutes, ne 07:50 UTC
Prognozė galioja nuo 22 metu 09 UTC su 23 metu 09 UTC
Vėjas 12 kt iš Vakarų/Pietvakarių su gūsio iki 21 kt
Matomumas 10 km arba daugiau
Su prošvaistėmis ne aukštis 4000 ft
Tapsmas
nuo 22 metu 17 UTC su 22 metu 19 UTC
Vėjas 6 kt iš Pietų

TAF: URFF 220750Z 2209/2309 25006G11MPS 9999 BKN040 BECMG 2217/2219 19003MPS

Orai ataskaitas ir orų prognozės (METAR, TAF).

turimą stotys yra geltonos ir raudonos taškus žemėlapyje.

Perkelti pele per norėdami pamatyti stoties vardą.

Tada spustelėkite, norėdami matyti oro stebėjimo ir prognozės.

Norėdami pakeisti žemėlapį: spustelėkite ant žalios mygtukų su juodo kryžiaus žemyn,; žalią mygtuką su brūkšneliu, jei norite nutolinti; arba žalių rodyklių gretimoms žemėlapius.


METAR-TAF: